createdAt,value
2023-05-06T00:00:41.053Z,4.00
2023-05-06T00:04:23.879Z,4.43
2023-05-06T00:08:07.123Z,4.10
2023-05-06T00:11:50.104Z,3.73
2023-05-06T00:15:32.923Z,3.77
2023-05-06T00:19:17.144Z,4.03
2023-05-06T00:23:00.647Z,3.80
2023-05-06T00:26:43.374Z,4.17
2023-05-06T00:30:26.601Z,3.80
2023-05-06T00:34:09.950Z,4.10
2023-05-06T00:37:57.680Z,3.97
2023-05-06T00:41:40.382Z,3.90
2023-05-06T00:45:23.091Z,3.87
2023-05-06T00:49:06.006Z,3.30
2023-05-06T00:52:49.193Z,3.70
2023-05-06T00:56:33.220Z,3.90
2023-05-06T01:00:16.756Z,3.70
2023-05-06T01:03:59.514Z,4.03
2023-05-06T01:07:45.220Z,3.77
2023-05-06T01:11:39.720Z,4.50
2023-05-06T01:15:28.935Z,4.07
2023-05-06T01:19:14.135Z,3.90
2023-05-06T01:22:57.205Z,4.40
2023-05-06T01:26:42.471Z,4.23
2023-05-06T01:30:29.327Z,3.77
2023-05-06T01:34:17.087Z,4.00
2023-05-06T01:38:07.414Z,3.97
2023-05-06T01:41:52.801Z,4.27
2023-05-06T01:45:36.782Z,3.73
2023-05-06T01:49:19.931Z,4.07
2023-05-06T01:53:03.750Z,4.10
2023-05-06T01:56:46.871Z,3.97
2023-05-06T02:00:31.474Z,3.70
2023-05-06T02:04:14.166Z,4.50
2023-05-06T02:07:56.829Z,4.37
2023-05-06T02:11:39.571Z,3.93
2023-05-06T02:15:22.270Z,3.73
2023-05-06T02:19:07.027Z,3.90
2023-05-06T02:22:49.917Z,4.23
2023-05-06T02:26:32.599Z,3.80
2023-05-06T02:30:15.718Z,3.93
2023-05-06T02:33:58.402Z,4.17
2023-05-06T02:37:42.496Z,3.83
2023-05-06T02:41:25.328Z,3.73
2023-05-06T02:45:09.414Z,4.10
2023-05-06T02:48:52.296Z,3.90
2023-05-06T02:52:36.040Z,4.20
2023-05-06T02:56:20.085Z,3.63
2023-05-06T03:00:02.813Z,4.43
2023-05-06T03:03:45.687Z,4.30
2023-05-06T03:07:28.393Z,4.10
2023-05-06T03:11:11.080Z,4.10
2023-05-06T03:14:55.194Z,3.80
2023-05-06T03:18:37.874Z,4.30
2023-05-06T03:22:20.619Z,4.07
2023-05-06T03:26:03.323Z,4.00
2023-05-06T03:29:45.983Z,3.80
2023-05-06T03:33:30.078Z,3.67
2023-05-06T03:37:12.752Z,3.57
2023-05-06T03:40:55.583Z,3.80
2023-05-06T03:44:38.273Z,3.73
2023-05-06T03:48:20.963Z,3.83
2023-05-06T03:52:05.346Z,3.20
2023-05-06T03:55:48.103Z,4.00
2023-05-06T03:59:30.931Z,3.37
2023-05-06T04:03:13.866Z,3.20
2023-05-06T04:06:56.592Z,3.80
2023-05-06T04:10:41.915Z,3.23
2023-05-06T04:14:24.643Z,3.30
2023-05-06T04:18:07.496Z,3.43
2023-05-06T04:21:50.283Z,3.60
2023-05-06T04:25:32.961Z,3.77
2023-05-06T04:29:16.969Z,3.97
2023-05-06T04:32:59.640Z,3.37
2023-05-06T04:36:42.343Z,3.37
2023-05-06T04:40:26.237Z,3.60
2023-05-06T04:44:09.129Z,4.03
2023-05-06T04:47:53.514Z,3.50
2023-05-06T04:51:36.292Z,3.53
2023-05-06T04:55:19.062Z,3.10
2023-05-06T04:59:01.772Z,3.50
2023-05-06T05:02:44.492Z,3.67
2023-05-06T05:06:28.564Z,3.17
2023-05-06T05:10:11.574Z,3.17
2023-05-06T05:13:56.537Z,3.33
2023-05-06T05:17:39.844Z,3.20
2023-05-06T05:21:22.578Z,3.47
2023-05-06T05:25:08.567Z,2.90
2023-05-06T05:28:51.442Z,3.30
2023-05-06T05:32:34.169Z,2.83
2023-05-06T05:36:16.898Z,3.23
2023-05-06T05:39:59.897Z,3.03
2023-05-06T05:43:43.936Z,3.00
2023-05-06T05:47:26.587Z,2.93
2023-05-06T05:51:09.633Z,2.60
2023-05-06T05:54:52.328Z,2.77
2023-05-06T05:58:35.337Z,3.00
2023-05-06T06:02:19.369Z,3.40
2023-05-06T06:06:02.463Z,2.90
2023-05-06T06:09:46.977Z,3.27
2023-05-06T06:13:29.714Z,3.00
2023-05-06T06:17:12.699Z,3.03
2023-05-06T06:20:56.724Z,3.30
2023-05-06T06:24:39.397Z,3.40
2023-05-06T06:28:22.851Z,3.80
2023-05-06T06:32:06.237Z,3.30
2023-05-06T06:35:49.042Z,3.67
2023-05-06T06:39:33.213Z,6.20
2023-05-06T06:43:15.853Z,3.23
2023-05-06T06:46:58.513Z,3.90
2023-05-06T06:50:41.284Z,4.80
2023-05-06T06:54:24.097Z,4.67
2023-05-06T06:58:08.175Z,5.60
2023-05-06T07:01:50.906Z,6.50
2023-05-06T07:05:33.737Z,5.47
2023-05-06T07:09:16.556Z,6.83
2023-05-06T07:12:59.340Z,6.90
2023-05-06T07:16:45.347Z,8.00
2023-05-06T07:20:29.166Z,7.77
2023-05-06T07:24:12.203Z,6.43
2023-05-06T07:27:54.821Z,8.47
2023-05-06T07:31:37.764Z,7.87
2023-05-06T07:35:21.916Z,7.37
2023-05-06T07:39:05.065Z,7.00
2023-05-06T07:42:48.292Z,6.30
2023-05-06T07:46:31.147Z,7.23
2023-05-06T07:50:14.417Z,6.60
2023-05-06T07:53:59.813Z,6.90
2023-05-06T07:57:44.962Z,6.30
2023-05-06T08:01:28.974Z,6.77
2023-05-06T08:05:12.021Z,6.37
2023-05-06T08:08:54.943Z,6.83
2023-05-06T08:12:39.030Z,6.43
2023-05-06T08:16:23.837Z,6.03
2023-05-06T08:20:09.440Z,5.63
2023-05-06T08:23:52.701Z,4.90
2023-05-06T08:27:35.382Z,5.37
2023-05-06T08:31:19.446Z,5.30
2023-05-06T08:35:02.158Z,5.33
2023-05-06T08:38:50.751Z,4.33
2023-05-06T08:42:34.028Z,4.47
2023-05-06T08:46:17.225Z,4.03
2023-05-06T08:50:01.586Z,4.57
2023-05-06T08:53:49.013Z,4.73
2023-05-06T08:57:32.566Z,4.57
2023-05-06T09:01:18.810Z,3.70
2023-05-06T09:05:03.572Z,4.00
2023-05-06T09:08:46.270Z,3.70
2023-05-06T09:12:29.377Z,4.00
2023-05-06T09:16:12.156Z,3.70
2023-05-06T09:19:57.004Z,3.60
2023-05-06T09:23:41.661Z,4.23
2023-05-06T09:27:25.224Z,3.30
2023-05-06T09:31:07.900Z,3.40
2023-05-06T09:34:50.603Z,3.60
2023-05-06T09:38:33.305Z,3.13
2023-05-06T09:42:17.495Z,3.20
2023-05-06T09:46:01.867Z,3.10
2023-05-06T09:49:44.601Z,3.27
2023-05-06T09:53:28.976Z,3.50
2023-05-06T09:57:13.617Z,3.50
2023-05-06T10:00:58.200Z,3.30
2023-05-06T10:04:42.577Z,3.77
2023-05-06T10:08:27.929Z,3.33
2023-05-06T10:12:10.974Z,3.40
2023-05-06T10:15:54.091Z,3.20
2023-05-06T10:19:41.711Z,3.40
2023-05-06T10:23:26.508Z,3.30
2023-05-06T10:27:10.955Z,4.00
2023-05-06T10:30:54.818Z,4.07
2023-05-06T10:34:42.580Z,3.60
2023-05-06T10:38:29.620Z,3.47
2023-05-06T10:42:12.331Z,2.93
2023-05-06T10:46:07.197Z,3.20
2023-05-06T10:50:19.976Z,3.47
2023-05-06T10:54:13.121Z,2.50
2023-05-06T10:57:58.110Z,3.13
2023-05-06T11:01:42.889Z,3.10
2023-05-06T11:05:26.790Z,2.93
2023-05-06T11:09:19.091Z,3.20
2023-05-06T11:13:21.088Z,2.42
2023-05-06T11:17:05.227Z,2.83
2023-05-06T11:20:48.040Z,2.60
2023-05-06T11:24:33.705Z,3.30
2023-05-06T11:28:18.162Z,2.87
2023-05-06T11:32:01.463Z,2.40
2023-05-06T11:35:44.208Z,2.77
2023-05-06T11:39:30.932Z,3.03
2023-05-06T11:43:16.018Z,2.63
2023-05-06T11:47:03.120Z,2.80
2023-05-06T11:50:47.607Z,2.50
2023-05-06T11:54:30.434Z,3.05
2023-05-06T11:58:18.775Z,2.30
2023-05-06T12:02:02.959Z,2.70
2023-05-06T12:05:48.512Z,2.30
2023-05-06T12:09:31.424Z,2.30
2023-05-06T12:13:15.128Z,2.50
2023-05-06T12:17:00.291Z,2.43
2023-05-06T12:20:43.841Z,2.30
2023-05-06T12:24:30.605Z,2.75
2023-05-06T12:28:20.962Z,2.38
2023-05-06T12:32:12.250Z,2.50
2023-05-06T12:35:58.227Z,2.17
2023-05-06T12:39:41.642Z,2.25
2023-05-06T12:43:30.230Z,2.35
2023-05-06T12:47:21.647Z,1.93
2023-05-06T12:51:18.951Z,2.20
2023-05-06T12:55:02.474Z,2.78
2023-05-06T12:58:45.453Z,2.67
2023-05-06T13:02:29.589Z,2.05
2023-05-06T13:06:14.811Z,2.30
2023-05-06T13:09:57.574Z,2.20
2023-05-06T13:13:40.315Z,2.33
2023-05-06T13:17:23.122Z,2.30
2023-05-06T13:21:07.449Z,2.10
2023-05-06T13:24:50.126Z,1.83
2023-05-06T13:28:34.001Z,1.98
2023-05-06T13:32:16.811Z,2.00
2023-05-06T13:36:03.416Z,2.00
2023-05-06T13:39:49.375Z,1.95
2023-05-06T13:43:32.046Z,2.40
2023-05-06T13:47:14.908Z,1.80
2023-05-06T13:50:57.637Z,1.75
2023-05-06T13:54:40.392Z,1.98
2023-05-06T13:58:24.411Z,1.90
2023-05-06T14:02:09.437Z,2.17
2023-05-06T14:05:52.617Z,2.05
2023-05-06T14:09:35.336Z,2.33
2023-05-06T14:13:18.171Z,1.70
2023-05-06T14:17:02.180Z,2.50
2023-05-06T14:20:44.851Z,2.10
2023-05-06T14:24:27.539Z,1.63
2023-05-06T14:28:10.818Z,1.50
2023-05-06T14:31:53.834Z,1.65
2023-05-06T14:35:41.604Z,1.73
2023-05-06T14:39:24.320Z,1.80
2023-05-06T14:43:07.759Z,1.70
2023-05-06T14:46:50.500Z,1.60
2023-05-06T14:50:33.211Z,1.60
2023-05-06T14:54:17.406Z,1.80
2023-05-06T14:58:00.096Z,1.70
2023-05-06T15:01:42.926Z,1.83
2023-05-06T15:05:25.744Z,1.70
2023-05-06T15:09:09.076Z,2.63
2023-05-06T15:12:53.200Z,1.58
2023-05-06T15:16:35.972Z,1.55
2023-05-06T15:20:19.003Z,1.33
2023-05-06T15:24:01.803Z,1.30
2023-05-06T15:27:44.476Z,1.40
2023-05-06T15:31:28.613Z,2.30
2023-05-06T15:35:14.132Z,1.70
2023-05-06T15:39:00.433Z,1.40
2023-05-06T15:42:43.286Z,1.58
2023-05-06T15:46:26.186Z,1.52
2023-05-06T15:50:21.192Z,1.30
2023-05-06T15:54:14.016Z,1.40
2023-05-06T15:58:00.583Z,1.80
2023-05-06T16:02:24.529Z,1.40
2023-05-06T16:05:48.260Z,1.80
2023-05-06T16:09:31.012Z,1.42
2023-05-06T16:13:13.704Z,2.47
2023-05-06T16:16:56.397Z,3.90
2023-05-06T16:20:39.132Z,2.28
2023-05-06T16:24:23.212Z,1.60
2023-05-06T16:28:06.315Z,1.70
2023-05-06T16:31:49.805Z,1.70
2023-05-06T16:35:33.183Z,1.70
2023-05-06T16:39:15.874Z,1.63
2023-05-06T16:42:59.925Z,1.70
2023-05-06T16:46:42.619Z,1.40
2023-05-06T16:50:25.292Z,1.45
2023-05-06T16:54:07.961Z,1.30
2023-05-06T16:57:50.729Z,1.70
2023-05-06T17:01:34.776Z,1.80
2023-05-06T17:05:18.701Z,5.05
2023-05-06T17:09:02.883Z,6.10
2023-05-06T17:12:48.541Z,1.77
2023-05-06T17:16:33.151Z,2.63
2023-05-06T17:20:17.417Z,1.73
2023-05-06T17:24:00.325Z,1.70
2023-05-06T17:27:43.019Z,1.90
2023-05-06T17:31:25.908Z,2.05
2023-05-06T17:35:09.650Z,11.32
2023-05-06T17:39:02.733Z,4.20
2023-05-06T17:42:45.494Z,4.40
2023-05-06T17:46:28.442Z,2.95
2023-05-06T17:50:12.276Z,2.40
2023-05-06T17:53:56.336Z,2.40
2023-05-06T17:57:39.138Z,2.00
2023-05-06T18:01:21.861Z,2.08
2023-05-06T18:05:04.822Z,1.80
2023-05-06T18:08:47.509Z,2.03
2023-05-06T18:12:31.566Z,2.20
2023-05-06T18:16:14.212Z,1.88
2023-05-06T18:19:57.083Z,19.80
2023-05-06T18:23:39.792Z,23.25
2023-05-06T18:27:22.650Z,9.85
2023-05-06T18:31:07.512Z,3.80
2023-05-06T18:34:50.309Z,2.58
2023-05-06T18:38:33.099Z,2.78
2023-05-06T18:42:15.962Z,2.75
2023-05-06T18:45:59.283Z,4.22
2023-05-06T18:49:45.220Z,11.13
2023-05-06T18:53:27.867Z,20.98
2023-05-06T18:57:10.608Z,5.97
2023-05-06T19:00:54.038Z,5.18
2023-05-06T19:04:36.868Z,4.25
2023-05-06T19:08:21.023Z,4.57
2023-05-06T19:12:03.754Z,3.83
2023-05-06T19:15:46.432Z,4.25
2023-05-06T19:19:29.144Z,4.20
2023-05-06T19:23:11.898Z,5.03
2023-05-06T19:26:55.922Z,4.63
2023-05-06T19:30:38.665Z,4.10
2023-05-06T19:34:23.407Z,10.67
2023-05-06T19:38:06.933Z,28.67
2023-05-06T19:41:49.547Z,21.60
2023-05-06T19:45:34.342Z,7.90
2023-05-06T19:49:19.397Z,7.03
2023-05-06T19:53:02.117Z,5.63
2023-05-06T19:56:44.754Z,4.90
2023-05-06T20:00:28.199Z,4.93
2023-05-06T20:04:12.298Z,4.63
2023-05-06T20:07:55.385Z,5.50
2023-05-06T20:11:38.097Z,6.20
2023-05-06T20:15:21.325Z,27.40
2023-05-06T20:19:03.929Z,8.57
2023-05-06T20:22:48.031Z,8.67
2023-05-06T20:26:30.697Z,14.53
2023-05-06T20:30:13.670Z,10.53
2023-05-06T20:33:56.332Z,10.83
2023-05-06T20:37:39.148Z,10.73
2023-05-06T20:41:23.337Z,8.00
2023-05-06T20:45:07.710Z,6.87
2023-05-06T20:48:51.779Z,6.37
2023-05-06T20:52:34.834Z,6.83
2023-05-06T20:56:20.471Z,6.77
2023-05-06T21:00:05.087Z,11.23
2023-05-06T21:03:47.925Z,7.90
2023-05-06T21:07:33.294Z,6.20
2023-05-06T21:11:15.964Z,6.00
2023-05-06T21:14:59.476Z,6.77
2023-05-06T21:18:43.656Z,6.57
2023-05-06T21:22:27.220Z,6.20
2023-05-06T21:26:10.068Z,6.60
2023-05-06T21:29:57.167Z,17.87
2023-05-06T21:33:39.915Z,14.43
2023-05-06T21:37:23.912Z,10.53
2023-05-06T21:41:06.665Z,8.80
2023-05-06T21:44:49.363Z,6.60
2023-05-06T21:48:32.099Z,6.27
2023-05-06T21:52:14.800Z,6.37
2023-05-06T21:55:59.104Z,6.90
2023-05-06T21:59:41.873Z,7.13
2023-05-06T22:03:24.617Z,7.50
2023-05-06T22:07:08.263Z,7.20
2023-05-06T22:10:51.022Z,8.57
2023-05-06T22:14:41.209Z,9.07
2023-05-06T22:18:24.372Z,8.00
2023-05-06T22:22:07.077Z,7.70
2023-05-06T22:25:49.728Z,8.33
2023-05-06T22:29:34.951Z,8.37
2023-05-06T22:33:19.090Z,8.27
2023-05-06T22:37:01.892Z,8.83
2023-05-06T22:40:44.556Z,9.23
2023-05-06T22:44:27.270Z,8.37
2023-05-06T22:48:10.025Z,8.73
2023-05-06T22:51:54.218Z,8.40
2023-05-06T22:55:38.370Z,8.80
2023-05-06T22:59:21.318Z,9.00
2023-05-06T23:03:05.238Z,8.03
2023-05-06T23:06:47.937Z,8.23
2023-05-06T23:10:32.404Z,9.70
2023-05-06T23:14:15.029Z,9.10
2023-05-06T23:17:57.999Z,8.20
2023-05-06T23:21:41.482Z,8.63
2023-05-06T23:25:24.229Z,8.53
2023-05-06T23:29:08.218Z,9.00
2023-05-06T23:32:50.938Z,9.17
2023-05-06T23:36:34.588Z,9.77
2023-05-06T23:40:17.471Z,9.70
2023-05-06T23:44:00.171Z,10.57
2023-05-06T23:47:44.214Z,10.70
2023-05-06T23:51:27.517Z,10.33
2023-05-06T23:55:10.733Z,9.60
2023-05-06T23:58:53.618Z,11.53
